sensor_id;sensor_type;location;lat;lon;timestamp;P1;durP1;ratioP1;P2;durP2;ratioP2
42742;SDS011;28397;44.552;-0.848;2022-07-22T00:00:12;8.82;;;4.95;;
42742;SDS011;28397;44.552;-0.848;2022-07-22T00:02:39;7.15;;;5.07;;
42742;SDS011;28397;44.552;-0.848;2022-07-22T00:05:05;5.90;;;4.90;;
42742;SDS011;28397;44.552;-0.848;2022-07-22T00:07:32;6.30;;;4.50;;
42742;SDS011;28397;44.552;-0.848;2022-07-22T00:09:57;5.05;;;4.18;;
42742;SDS011;28397;44.552;-0.848;2022-07-22T00:12:23;8.68;;;5.10;;
42742;SDS011;28397;44.552;-0.848;2022-07-22T00:14:49;6.18;;;4.70;;
42742;SDS011;28397;44.552;-0.848;2022-07-22T00:17:15;6.40;;;4.65;;
42742;SDS011;28397;44.552;-0.848;2022-07-22T00:19:41;6.78;;;4.45;;
42742;SDS011;28397;44.552;-0.848;2022-07-22T00:22:07;6.32;;;4.60;;
42742;SDS011;28397;44.552;-0.848;2022-07-22T00:24:33;5.20;;;4.43;;
42742;SDS011;28397;44.552;-0.848;2022-07-22T00:26:58;9.00;;;5.25;;
42742;SDS011;28397;44.552;-0.848;2022-07-22T00:29:24;8.38;;;4.70;;
42742;SDS011;28397;44.552;-0.848;2022-07-22T00:31:50;5.65;;;4.88;;
42742;SDS011;28397;44.552;-0.848;2022-07-22T00:34:18;7.35;;;5.15;;
42742;SDS011;28397;44.552;-0.848;2022-07-22T00:36:46;6.03;;;4.43;;
42742;SDS011;28397;44.552;-0.848;2022-07-22T00:39:12;7.10;;;4.80;;
42742;SDS011;28397;44.552;-0.848;2022-07-22T00:41:37;7.90;;;5.15;;
42742;SDS011;28397;44.552;-0.848;2022-07-22T00:44:04;6.90;;;4.75;;
42742;SDS011;28397;44.552;-0.848;2022-07-22T00:46:32;7.20;;;4.60;;
42742;SDS011;28397;44.552;-0.848;2022-07-22T00:48:59;8.95;;;5.00;;
42742;SDS011;28397;44.552;-0.848;2022-07-22T00:51:26;8.55;;;4.80;;
42742;SDS011;28397;44.552;-0.848;2022-07-22T00:53:53;6.13;;;5.10;;
42742;SDS011;28397;44.552;-0.848;2022-07-22T00:56:20;5.78;;;4.70;;
42742;SDS011;28397;44.552;-0.848;2022-07-22T00:58:47;7.05;;;4.90;;
42742;SDS011;28397;44.552;-0.848;2022-07-22T01:01:14;7.13;;;5.10;;
42742;SDS011;28397;44.552;-0.848;2022-07-22T01:03:41;5.82;;;4.82;;
42742;SDS011;28397;44.552;-0.848;2022-07-22T01:06:07;8.85;;;5.00;;
42742;SDS011;28397;44.552;-0.848;2022-07-22T01:08:34;7.90;;;5.22;;
42742;SDS011;28397;44.552;-0.848;2022-07-22T01:11:13;8.15;;;5.32;;
42742;SDS011;28397;44.552;-0.848;2022-07-22T01:13:40;7.68;;;5.07;;
42742;SDS011;28397;44.552;-0.848;2022-07-22T01:16:08;8.02;;;5.20;;
42742;SDS011;28397;44.552;-0.848;2022-07-22T01:18:35;6.57;;;4.97;;
42742;SDS011;28397;44.552;-0.848;2022-07-22T01:21:03;5.82;;;5.13;;
42742;SDS011;28397;44.552;-0.848;2022-07-22T01:23:30;5.93;;;5.30;;
42742;SDS011;28397;44.552;-0.848;2022-07-22T01:25:56;5.80;;;4.90;;
42742;SDS011;28397;44.552;-0.848;2022-07-22T01:28:22;5.88;;;5.28;;
42742;SDS011;28397;44.552;-0.848;2022-07-22T01:30:48;8.20;;;5.18;;
42742;SDS011;28397;44.552;-0.848;2022-07-22T01:33:15;5.95;;;5.35;;
42742;SDS011;28397;44.552;-0.848;2022-07-22T01:35:42;7.03;;;5.15;;
42742;SDS011;28397;44.552;-0.848;2022-07-22T01:38:07;9.80;;;5.43;;
42742;SDS011;28397;44.552;-0.848;2022-07-22T01:40:33;8.40;;;5.45;;
42742;SDS011;28397;44.552;-0.848;2022-07-22T01:42:59;5.75;;;5.15;;
42742;SDS011;28397;44.552;-0.848;2022-07-22T01:45:26;6.47;;;5.68;;
42742;SDS011;28397;44.552;-0.848;2022-07-22T01:47:51;7.25;;;6.13;;
42742;SDS011;28397;44.552;-0.848;2022-07-22T01:50:17;8.27;;;5.88;;
42742;SDS011;28397;44.552;-0.848;2022-07-22T01:52:43;7.78;;;6.50;;
42742;SDS011;28397;44.552;-0.848;2022-07-22T01:55:08;7.60;;;5.57;;
42742;SDS011;28397;44.552;-0.848;2022-07-22T01:57:37;6.20;;;5.60;;
42742;SDS011;28397;44.552;-0.848;2022-07-22T02:00:06;6.90;;;5.72;;
42742;SDS011;28397;44.552;-0.848;2022-07-22T02:02:34;7.03;;;5.85;;
42742;SDS011;28397;44.552;-0.848;2022-07-22T02:05:00;6.00;;;5.40;;
42742;SDS011;28397;44.552;-0.848;2022-07-22T02:07:27;7.88;;;5.93;;
42742;SDS011;28397;44.552;-0.848;2022-07-22T02:09:53;7.93;;;5.80;;
42742;SDS011;28397;44.552;-0.848;2022-07-22T02:12:19;6.60;;;5.90;;
42742;SDS011;28397;44.552;-0.848;2022-07-22T02:14:45;6.88;;;5.95;;
42742;SDS011;28397;44.552;-0.848;2022-07-22T02:17:11;7.50;;;6.05;;
42742;SDS011;28397;44.552;-0.848;2022-07-22T02:19:37;6.78;;;5.70;;
42742;SDS011;28397;44.552;-0.848;2022-07-22T02:22:03;6.25;;;5.65;;
42742;SDS011;28397;44.552;-0.848;2022-07-22T02:24:29;6.35;;;5.75;;
42742;SDS011;28397;44.552;-0.848;2022-07-22T02:26:55;8.98;;;5.88;;
42742;SDS011;28397;44.552;-0.848;2022-07-22T02:29:20;8.02;;;6.55;;
42742;SDS011;28397;44.552;-0.848;2022-07-22T02:31:46;7.57;;;5.95;;
42742;SDS011;28397;44.552;-0.848;2022-07-22T02:34:12;7.03;;;6.30;;
42742;SDS011;28397;44.552;-0.848;2022-07-22T02:36:38;8.05;;;6.03;;
42742;SDS011;28397;44.552;-0.848;2022-07-22T02:39:03;11.50;;;7.30;;
42742;SDS011;28397;44.552;-0.848;2022-07-22T02:41:29;9.27;;;7.40;;
42742;SDS011;28397;44.552;-0.848;2022-07-22T02:43:55;7.88;;;7.13;;
42742;SDS011;28397;44.552;-0.848;2022-07-22T02:46:21;11.65;;;8.02;;
42742;SDS011;28397;44.552;-0.848;2022-07-22T02:48:48;7.47;;;6.50;;
42742;SDS011;28397;44.552;-0.848;2022-07-22T02:51:14;7.50;;;6.80;;
42742;SDS011;28397;44.552;-0.848;2022-07-22T02:53:39;8.43;;;6.75;;
42742;SDS011;28397;44.552;-0.848;2022-07-22T02:56:05;7.53;;;6.43;;
42742;SDS011;28397;44.552;-0.848;2022-07-22T02:58:31;9.32;;;6.80;;
42742;SDS011;28397;44.552;-0.848;2022-07-22T03:00:57;10.32;;;7.15;;
42742;SDS011;28397;44.552;-0.848;2022-07-22T03:03:22;9.48;;;6.47;;
42742;SDS011;28397;44.552;-0.848;2022-07-22T03:05:49;9.20;;;6.90;;
42742;SDS011;28397;44.552;-0.848;2022-07-22T03:08:14;9.38;;;6.80;;
42742;SDS011;28397;44.552;-0.848;2022-07-22T03:10:40;8.15;;;6.72;;
42742;SDS011;28397;44.552;-0.848;2022-07-22T03:13:06;8.00;;;6.95;;
42742;SDS011;28397;44.552;-0.848;2022-07-22T03:15:32;7.50;;;6.70;;
42742;SDS011;28397;44.552;-0.848;2022-07-22T03:17:58;8.63;;;6.85;;
42742;SDS011;28397;44.552;-0.848;2022-07-22T03:20:23;9.30;;;7.20;;
42742;SDS011;28397;44.552;-0.848;2022-07-22T03:22:49;6.90;;;6.25;;
42742;SDS011;28397;44.552;-0.848;2022-07-22T03:25:15;8.95;;;6.40;;
42742;SDS011;28397;44.552;-0.848;2022-07-22T03:27:40;10.50;;;7.18;;
42742;SDS011;28397;44.552;-0.848;2022-07-22T03:30:06;8.82;;;7.05;;
42742;SDS011;28397;44.552;-0.848;2022-07-22T03:32:32;7.60;;;6.70;;
42742;SDS011;28397;44.552;-0.848;2022-07-22T03:34:58;7.57;;;6.50;;
42742;SDS011;28397;44.552;-0.848;2022-07-22T03:37:24;8.63;;;6.78;;
42742;SDS011;28397;44.552;-0.848;2022-07-22T03:39:50;11.15;;;6.70;;
42742;SDS011;28397;44.552;-0.848;2022-07-22T03:42:15;7.57;;;6.78;;
42742;SDS011;28397;44.552;-0.848;2022-07-22T03:44:41;8.70;;;6.68;;
42742;SDS011;28397;44.552;-0.848;2022-07-22T03:47:07;6.97;;;6.28;;
42742;SDS011;28397;44.552;-0.848;2022-07-22T03:49:32;7.40;;;6.43;;
42742;SDS011;28397;44.552;-0.848;2022-07-22T03:51:58;8.13;;;6.72;;
42742;SDS011;28397;44.552;-0.848;2022-07-22T03:54:24;8.85;;;6.70;;
42742;SDS011;28397;44.552;-0.848;2022-07-22T03:56:50;7.55;;;6.82;;
42742;SDS011;28397;44.552;-0.848;2022-07-22T03:59:16;8.82;;;6.43;;
42742;SDS011;28397;44.552;-0.848;2022-07-22T04:01:42;7.25;;;6.55;;
42742;SDS011;28397;44.552;-0.848;2022-07-22T04:04:07;8.25;;;7.03;;
42742;SDS011;28397;44.552;-0.848;2022-07-22T04:06:33;8.82;;;6.47;;
42742;SDS011;28397;44.552;-0.848;2022-07-22T04:08:59;9.35;;;7.32;;
42742;SDS011;28397;44.552;-0.848;2022-07-22T04:11:25;8.10;;;7.00;;
42742;SDS011;28397;44.552;-0.848;2022-07-22T04:13:51;8.55;;;7.20;;
42742;SDS011;28397;44.552;-0.848;2022-07-22T04:16:17;11.30;;;7.18;;
42742;SDS011;28397;44.552;-0.848;2022-07-22T04:18:43;9.55;;;7.97;;
42742;SDS011;28397;44.552;-0.848;2022-07-22T04:21:09;10.35;;;7.60;;
42742;SDS011;28397;44.552;-0.848;2022-07-22T04:23:34;10.23;;;7.78;;
42742;SDS011;28397;44.552;-0.848;2022-07-22T04:26:00;8.45;;;7.63;;
42742;SDS011;28397;44.552;-0.848;2022-07-22T04:28:26;10.02;;;7.97;;
42742;SDS011;28397;44.552;-0.848;2022-07-22T04:30:52;10.98;;;7.97;;
42742;SDS011;28397;44.552;-0.848;2022-07-22T04:33:18;10.52;;;8.10;;
42742;SDS011;28397;44.552;-0.848;2022-07-22T04:35:43;11.00;;;7.72;;
42742;SDS011;28397;44.552;-0.848;2022-07-22T04:38:09;11.85;;;7.55;;
42742;SDS011;28397;44.552;-0.848;2022-07-22T04:40:35;11.75;;;8.27;;
42742;SDS011;28397;44.552;-0.848;2022-07-22T04:43:00;10.82;;;7.97;;
42742;SDS011;28397;44.552;-0.848;2022-07-22T04:45:26;11.18;;;7.55;;
42742;SDS011;28397;44.552;-0.848;2022-07-22T04:47:52;11.73;;;8.20;;
42742;SDS011;28397;44.552;-0.848;2022-07-22T04:50:18;10.38;;;8.00;;
42742;SDS011;28397;44.552;-0.848;2022-07-22T04:52:43;10.95;;;7.90;;
42742;SDS011;28397;44.552;-0.848;2022-07-22T04:55:09;13.77;;;7.88;;
42742;SDS011;28397;44.552;-0.848;2022-07-22T04:57:35;10.57;;;8.48;;
42742;SDS011;28397;44.552;-0.848;2022-07-22T05:00:01;11.57;;;8.27;;
42742;SDS011;28397;44.552;-0.848;2022-07-22T05:02:27;10.63;;;8.18;;
42742;SDS011;28397;44.552;-0.848;2022-07-22T05:04:53;8.45;;;7.10;;
42742;SDS011;28397;44.552;-0.848;2022-07-22T05:07:19;10.65;;;7.68;;
42742;SDS011;28397;44.552;-0.848;2022-07-22T05:09:45;10.90;;;7.60;;
42742;SDS011;28397;44.552;-0.848;2022-07-22T05:12:10;9.95;;;7.53;;
42742;SDS011;28397;44.552;-0.848;2022-07-22T05:14:36;9.82;;;7.82;;
42742;SDS011;28397;44.552;-0.848;2022-07-22T05:17:02;10.50;;;7.82;;
42742;SDS011;28397;44.552;-0.848;2022-07-22T05:19:27;10.40;;;7.10;;
42742;SDS011;28397;44.552;-0.848;2022-07-22T05:21:53;9.80;;;7.28;;
42742;SDS011;28397;44.552;-0.848;2022-07-22T05:24:19;9.43;;;6.80;;
42742;SDS011;28397;44.552;-0.848;2022-07-22T05:26:44;7.88;;;6.75;;
42742;SDS011;28397;44.552;-0.848;2022-07-22T05:29:10;10.25;;;7.50;;
42742;SDS011;28397;44.552;-0.848;2022-07-22T05:31:36;10.48;;;7.25;;
42742;SDS011;28397;44.552;-0.848;2022-07-22T05:34:02;10.90;;;7.05;;
42742;SDS011;28397;44.552;-0.848;2022-07-22T05:36:28;11.40;;;7.80;;
42742;SDS011;28397;44.552;-0.848;2022-07-22T05:38:54;15.82;;;7.80;;
42742;SDS011;28397;44.552;-0.848;2022-07-22T05:41:20;12.68;;;8.35;;
42742;SDS011;28397;44.552;-0.848;2022-07-22T05:43:45;14.70;;;7.95;;
42742;SDS011;28397;44.552;-0.848;2022-07-22T05:46:11;11.93;;;7.55;;
42742;SDS011;28397;44.552;-0.848;2022-07-22T05:48:37;14.27;;;7.90;;
42742;SDS011;28397;44.552;-0.848;2022-07-22T05:51:02;14.18;;;7.25;;
42742;SDS011;28397;44.552;-0.848;2022-07-22T05:53:28;16.90;;;7.80;;
42742;SDS011;28397;44.552;-0.848;2022-07-22T05:55:54;13.85;;;7.00;;
42742;SDS011;28397;44.552;-0.848;2022-07-22T05:58:19;9.18;;;6.35;;
42742;SDS011;28397;44.552;-0.848;2022-07-22T06:00:45;13.23;;;7.03;;
42742;SDS011;28397;44.552;-0.848;2022-07-22T06:03:11;13.57;;;7.05;;
42742;SDS011;28397;44.552;-0.848;2022-07-22T06:05:37;11.57;;;6.43;;
42742;SDS011;28397;44.552;-0.848;2022-07-22T06:08:03;11.15;;;6.88;;
42742;SDS011;28397;44.552;-0.848;2022-07-22T06:10:29;11.13;;;6.25;;
42742;SDS011;28397;44.552;-0.848;2022-07-22T06:12:55;14.30;;;7.13;;
42742;SDS011;28397;44.552;-0.848;2022-07-22T06:15:20;11.40;;;6.53;;
42742;SDS011;28397;44.552;-0.848;2022-07-22T06:17:46;13.05;;;6.88;;
42742;SDS011;28397;44.552;-0.848;2022-07-22T06:20:12;14.43;;;7.10;;
42742;SDS011;28397;44.552;-0.848;2022-07-22T06:22:40;11.27;;;6.82;;
42742;SDS011;28397;44.552;-0.848;2022-07-22T06:25:06;16.33;;;6.38;;
42742;SDS011;28397;44.552;-0.848;2022-07-22T06:27:33;10.90;;;6.22;;
42742;SDS011;28397;44.552;-0.848;2022-07-22T06:29:59;11.57;;;6.38;;
42742;SDS011;28397;44.552;-0.848;2022-07-22T06:32:25;10.02;;;6.72;;
42742;SDS011;28397;44.552;-0.848;2022-07-22T06:34:51;8.82;;;6.28;;
42742;SDS011;28397;44.552;-0.848;2022-07-22T06:37:16;11.93;;;6.63;;
42742;SDS011;28397;44.552;-0.848;2022-07-22T06:39:42;9.13;;;6.15;;
42742;SDS011;28397;44.552;-0.848;2022-07-22T06:42:08;11.48;;;6.65;;
42742;SDS011;28397;44.552;-0.848;2022-07-22T06:44:33;11.15;;;6.13;;
42742;SDS011;28397;44.552;-0.848;2022-07-22T06:46:59;8.10;;;5.47;;
42742;SDS011;28397;44.552;-0.848;2022-07-22T06:49:25;8.93;;;5.75;;
42742;SDS011;28397;44.552;-0.848;2022-07-22T06:51:51;12.25;;;6.32;;
42742;SDS011;28397;44.552;-0.848;2022-07-22T06:54:16;10.43;;;6.07;;
42742;SDS011;28397;44.552;-0.848;2022-07-22T06:56:42;12.30;;;5.93;;
42742;SDS011;28397;44.552;-0.848;2022-07-22T06:59:08;8.60;;;5.57;;
42742;SDS011;28397;44.552;-0.848;2022-07-22T07:01:34;9.23;;;6.38;;
42742;SDS011;28397;44.552;-0.848;2022-07-22T07:03:59;12.30;;;5.60;;
42742;SDS011;28397;44.552;-0.848;2022-07-22T07:06:25;11.27;;;5.78;;
42742;SDS011;28397;44.552;-0.848;2022-07-22T07:08:51;10.60;;;5.07;;
42742;SDS011;28397;44.552;-0.848;2022-07-22T07:11:16;7.22;;;4.65;;
42742;SDS011;28397;44.552;-0.848;2022-07-22T07:13:42;9.80;;;4.53;;
42742;SDS011;28397;44.552;-0.848;2022-07-22T07:16:08;9.98;;;4.53;;
42742;SDS011;28397;44.552;-0.848;2022-07-22T07:18:34;6.40;;;3.35;;
42742;SDS011;28397;44.552;-0.848;2022-07-22T07:20:59;10.45;;;3.97;;
42742;SDS011;28397;44.552;-0.848;2022-07-22T07:23:25;8.45;;;3.35;;
42742;SDS011;28397;44.552;-0.848;2022-07-22T07:25:51;7.25;;;3.88;;
42742;SDS011;28397;44.552;-0.848;2022-07-22T07:28:16;6.82;;;3.30;;
42742;SDS011;28397;44.552;-0.848;2022-07-22T07:30:42;7.28;;;3.30;;
42742;SDS011;28397;44.552;-0.848;2022-07-22T07:33:08;5.85;;;2.90;;
42742;SDS011;28397;44.552;-0.848;2022-07-22T07:35:34;6.43;;;3.00;;
42742;SDS011;28397;44.552;-0.848;2022-07-22T07:38:00;8.55;;;3.78;;
42742;SDS011;28397;44.552;-0.848;2022-07-22T07:40:25;7.45;;;3.20;;
42742;SDS011;28397;44.552;-0.848;2022-07-22T07:42:51;5.70;;;3.35;;
42742;SDS011;28397;44.552;-0.848;2022-07-22T07:45:17;7.20;;;2.85;;
42742;SDS011;28397;44.552;-0.848;2022-07-22T07:47:43;8.65;;;2.60;;
42742;SDS011;28397;44.552;-0.848;2022-07-22T07:50:08;6.07;;;2.80;;
42742;SDS011;28397;44.552;-0.848;2022-07-22T07:52:38;4.63;;;2.67;;
42742;SDS011;28397;44.552;-0.848;2022-07-22T07:55:09;7.40;;;3.00;;
42742;SDS011;28397;44.552;-0.848;2022-07-22T07:57:35;8.10;;;2.78;;
42742;SDS011;28397;44.552;-0.848;2022-07-22T08:00:03;8.18;;;2.50;;
42742;SDS011;28397;44.552;-0.848;2022-07-22T08:02:32;4.97;;;2.50;;
42742;SDS011;28397;44.552;-0.848;2022-07-22T08:04:58;5.05;;;2.30;;
42742;SDS011;28397;44.552;-0.848;2022-07-22T08:07:25;5.47;;;2.60;;
42742;SDS011;28397;44.552;-0.848;2022-07-22T08:09:51;6.10;;;2.58;;
42742;SDS011;28397;44.552;-0.848;2022-07-22T08:12:16;6.10;;;2.63;;
42742;SDS011;28397;44.552;-0.848;2022-07-22T08:14:42;6.53;;;2.35;;
42742;SDS011;28397;44.552;-0.848;2022-07-22T08:17:08;6.28;;;2.50;;
42742;SDS011;28397;44.552;-0.848;2022-07-22T08:19:34;6.88;;;2.53;;
42742;SDS011;28397;44.552;-0.848;2022-07-22T08:21:59;5.10;;;2.40;;
42742;SDS011;28397;44.552;-0.848;2022-07-22T08:24:25;9.07;;;2.72;;
42742;SDS011;28397;44.552;-0.848;2022-07-22T08:26:51;5.28;;;2.63;;
42742;SDS011;28397;44.552;-0.848;2022-07-22T08:29:17;7.32;;;2.70;;
42742;SDS011;28397;44.552;-0.848;2022-07-22T08:31:42;8.15;;;2.50;;
42742;SDS011;28397;44.552;-0.848;2022-07-22T08:34:08;10.07;;;2.95;;
42742;SDS011;28397;44.552;-0.848;2022-07-22T08:36:34;8.88;;;2.50;;
42742;SDS011;28397;44.552;-0.848;2022-07-22T08:39:00;8.20;;;2.30;;
42742;SDS011;28397;44.552;-0.848;2022-07-22T08:41:25;9.23;;;2.33;;
42742;SDS011;28397;44.552;-0.848;2022-07-22T08:43:51;9.13;;;2.42;;
42742;SDS011;28397;44.552;-0.848;2022-07-22T08:46:17;5.43;;;2.10;;
42742;SDS011;28397;44.552;-0.848;2022-07-22T08:48:43;6.55;;;2.28;;
42742;SDS011;28397;44.552;-0.848;2022-07-22T08:51:11;9.18;;;2.50;;
42742;SDS011;28397;44.552;-0.848;2022-07-22T08:53:36;8.70;;;2.28;;
42742;SDS011;28397;44.552;-0.848;2022-07-22T08:56:02;5.18;;;2.40;;
42742;SDS011;28397;44.552;-0.848;2022-07-22T08:58:28;4.40;;;2.00;;
42742;SDS011;28397;44.552;-0.848;2022-07-22T09:01:07;6.50;;;2.45;;
42742;SDS011;28397;44.552;-0.848;2022-07-22T09:03:44;10.43;;;2.30;;
42742;SDS011;28397;44.552;-0.848;2022-07-22T09:06:16;4.63;;;2.00;;
42742;SDS011;28397;44.552;-0.848;2022-07-22T09:08:59;6.60;;;1.90;;
42742;SDS011;28397;44.552;-0.848;2022-07-22T09:11:28;6.78;;;2.25;;
42742;SDS011;28397;44.552;-0.848;2022-07-22T09:13:55;6.22;;;2.15;;
42742;SDS011;28397;44.552;-0.848;2022-07-22T09:16:37;5.55;;;2.13;;
42742;SDS011;28397;44.552;-0.848;2022-07-22T09:19:08;8.02;;;2.13;;
42742;SDS011;28397;44.552;-0.848;2022-07-22T09:21:35;6.10;;;2.40;;
42742;SDS011;28397;44.552;-0.848;2022-07-22T09:24:02;5.40;;;2.13;;
42742;SDS011;28397;44.552;-0.848;2022-07-22T09:26:34;6.53;;;2.53;;
42742;SDS011;28397;44.552;-0.848;2022-07-22T09:29:01;5.05;;;2.13;;
42742;SDS011;28397;44.552;-0.848;2022-07-22T09:31:33;6.50;;;2.50;;
42742;SDS011;28397;44.552;-0.848;2022-07-22T09:34:01;6.88;;;2.63;;
42742;SDS011;28397;44.552;-0.848;2022-07-22T09:36:27;5.90;;;2.50;;
42742;SDS011;28397;44.552;-0.848;2022-07-22T09:38:53;6.15;;;2.40;;
42742;SDS011;28397;44.552;-0.848;2022-07-22T09:41:20;7.57;;;2.42;;
42742;SDS011;28397;44.552;-0.848;2022-07-22T09:43:46;8.93;;;5.30;;
42742;SDS011;28397;44.552;-0.848;2022-07-22T09:46:12;9.55;;;4.97;;
42742;SDS011;28397;44.552;-0.848;2022-07-22T09:48:38;6.13;;;3.30;;
42742;SDS011;28397;44.552;-0.848;2022-07-22T09:51:05;5.13;;;2.90;;
42742;SDS011;28397;44.552;-0.848;2022-07-22T09:53:32;4.50;;;2.80;;
42742;SDS011;28397;44.552;-0.848;2022-07-22T09:55:58;6.90;;;3.90;;
42742;SDS011;28397;44.552;-0.848;2022-07-22T09:58:25;9.25;;;3.90;;
42742;SDS011;28397;44.552;-0.848;2022-07-22T10:00:52;5.82;;;3.88;;
42742;SDS011;28397;44.552;-0.848;2022-07-22T10:03:23;7.82;;;4.63;;
42742;SDS011;28397;44.552;-0.848;2022-07-22T10:05:56;10.40;;;4.72;;
42742;SDS011;28397;44.552;-0.848;2022-07-22T10:08:23;12.10;;;6.18;;
42742;SDS011;28397;44.552;-0.848;2022-07-22T10:10:53;11.48;;;6.88;;
42742;SDS011;28397;44.552;-0.848;2022-07-22T10:13:25;9.23;;;7.28;;
42742;SDS011;28397;44.552;-0.848;2022-07-22T10:15:52;13.48;;;7.50;;
42742;SDS011;28397;44.552;-0.848;2022-07-22T10:18:19;11.00;;;6.88;;
42742;SDS011;28397;44.552;-0.848;2022-07-22T10:20:45;8.80;;;6.50;;
42742;SDS011;28397;44.552;-0.848;2022-07-22T10:23:12;12.87;;;7.70;;
42742;SDS011;28397;44.552;-0.848;2022-07-22T10:28:34;8.85;;;7.20;;
42742;SDS011;28397;44.552;-0.848;2022-07-22T10:31:17;12.20;;;8.05;;
42742;SDS011;28397;44.552;-0.848;2022-07-22T10:33:49;11.38;;;8.48;;
42742;SDS011;28397;44.552;-0.848;2022-07-22T10:39:15;10.45;;;7.57;;
42742;SDS011;28397;44.552;-0.848;2022-07-22T10:41:41;9.45;;;8.40;;
42742;SDS011;28397;44.552;-0.848;2022-07-22T10:44:09;11.40;;;8.40;;
42742;SDS011;28397;44.552;-0.848;2022-07-22T10:46:48;13.27;;;9.15;;
42742;SDS011;28397;44.552;-0.848;2022-07-22T10:49:20;9.38;;;7.55;;
42742;SDS011;28397;44.552;-0.848;2022-07-22T10:55:05;9.05;;;7.18;;
42742;SDS011;28397;44.552;-0.848;2022-07-22T10:57:38;9.52;;;6.97;;
42742;SDS011;28397;44.552;-0.848;2022-07-22T11:00:04;10.52;;;6.53;;
42742;SDS011;28397;44.552;-0.848;2022-07-22T11:02:31;13.27;;;8.77;;
42742;SDS011;28397;44.552;-0.848;2022-07-22T11:04:59;12.75;;;8.60;;
42742;SDS011;28397;44.552;-0.848;2022-07-22T11:07:24;11.57;;;8.57;;
42742;SDS011;28397;44.552;-0.848;2022-07-22T11:09:52;11.77;;;9.15;;
42742;SDS011;28397;44.552;-0.848;2022-07-22T11:12:18;12.18;;;8.48;;
42742;SDS011;28397;44.552;-0.848;2022-07-22T11:14:44;12.35;;;8.32;;
42742;SDS011;28397;44.552;-0.848;2022-07-22T11:17:11;12.20;;;8.23;;
42742;SDS011;28397;44.552;-0.848;2022-07-22T11:19:39;13.20;;;7.88;;
42742;SDS011;28397;44.552;-0.848;2022-07-22T11:22:08;10.93;;;7.28;;
42742;SDS011;28397;44.552;-0.848;2022-07-22T11:24:36;12.43;;;7.88;;
42742;SDS011;28397;44.552;-0.848;2022-07-22T11:27:03;11.40;;;7.50;;
42742;SDS011;28397;44.552;-0.848;2022-07-22T11:29:33;13.95;;;7.18;;
42742;SDS011;28397;44.552;-0.848;2022-07-22T11:32:02;11.23;;;7.20;;
42742;SDS011;28397;44.552;-0.848;2022-07-22T11:34:31;11.00;;;6.05;;
42742;SDS011;28397;44.552;-0.848;2022-07-22T11:36:57;10.52;;;6.30;;
42742;SDS011;28397;44.552;-0.848;2022-07-22T11:39:24;10.63;;;6.32;;
42742;SDS011;28397;44.552;-0.848;2022-07-22T11:41:52;11.27;;;5.50;;
42742;SDS011;28397;44.552;-0.848;2022-07-22T11:44:20;10.88;;;5.65;;
42742;SDS011;28397;44.552;-0.848;2022-07-22T11:46:47;9.52;;;5.55;;
42742;SDS011;28397;44.552;-0.848;2022-07-22T11:49:14;9.48;;;5.30;;
42742;SDS011;28397;44.552;-0.848;2022-07-22T11:51:41;10.63;;;5.30;;
42742;SDS011;28397;44.552;-0.848;2022-07-22T11:54:07;8.57;;;5.53;;
42742;SDS011;28397;44.552;-0.848;2022-07-22T11:56:34;9.20;;;4.97;;
42742;SDS011;28397;44.552;-0.848;2022-07-22T11:59:00;7.63;;;4.72;;
42742;SDS011;28397;44.552;-0.848;2022-07-22T12:01:30;9.75;;;4.93;;
42742;SDS011;28397;44.552;-0.848;2022-07-22T12:04:01;8.57;;;4.63;;
42742;SDS011;28397;44.552;-0.848;2022-07-22T12:06:30;10.35;;;4.80;;
42742;SDS011;28397;44.552;-0.848;2022-07-22T12:11:39;8.63;;;4.68;;
42742;SDS011;28397;44.552;-0.848;2022-07-22T12:14:10;9.65;;;4.45;;
42742;SDS011;28397;44.552;-0.848;2022-07-22T12:16:41;7.57;;;3.83;;
42742;SDS011;28397;44.552;-0.848;2022-07-22T12:19:09;6.32;;;3.50;;
42742;SDS011;28397;44.552;-0.848;2022-07-22T12:21:52;8.88;;;4.15;;
42742;SDS011;28397;44.552;-0.848;2022-07-22T12:24:27;8.95;;;3.90;;
42742;SDS011;28397;44.552;-0.848;2022-07-22T12:27:07;8.98;;;3.40;;
42742;SDS011;28397;44.552;-0.848;2022-07-22T12:32:04;5.53;;;3.60;;
42742;SDS011;28397;44.552;-0.848;2022-07-22T12:34:41;7.95;;;3.50;;
42742;SDS011;28397;44.552;-0.848;2022-07-22T12:37:27;11.30;;;3.55;;
42742;SDS011;28397;44.552;-0.848;2022-07-22T12:42:24;9.27;;;3.53;;
42742;SDS011;28397;44.552;-0.848;2022-07-22T12:47:43;8.32;;;3.45;;
42742;SDS011;28397;44.552;-0.848;2022-07-22T12:50:27;7.85;;;3.50;;
42742;SDS011;28397;44.552;-0.848;2022-07-22T12:52:57;9.65;;;3.58;;
42742;SDS011;28397;44.552;-0.848;2022-07-22T12:55:24;8.80;;;3.65;;
42742;SDS011;28397;44.552;-0.848;2022-07-22T12:57:51;7.28;;;3.80;;
42742;SDS011;28397;44.552;-0.848;2022-07-22T13:00:21;9.05;;;4.10;;
42742;SDS011;28397;44.552;-0.848;2022-07-22T13:02:51;8.27;;;4.10;;
42742;SDS011;28397;44.552;-0.848;2022-07-22T13:05:19;9.48;;;4.68;;
42742;SDS011;28397;44.552;-0.848;2022-07-22T13:07:45;8.15;;;4.10;;
42742;SDS011;28397;44.552;-0.848;2022-07-22T13:10:11;9.30;;;4.30;;
42742;SDS011;28397;44.552;-0.848;2022-07-22T13:12:38;9.23;;;4.10;;
42742;SDS011;28397;44.552;-0.848;2022-07-22T13:15:04;10.40;;;4.85;;
42742;SDS011;28397;44.552;-0.848;2022-07-22T13:17:30;7.80;;;4.20;;
42742;SDS011;28397;44.552;-0.848;2022-07-22T13:19:56;10.02;;;5.28;;
42742;SDS011;28397;44.552;-0.848;2022-07-22T13:22:22;11.52;;;5.28;;
42742;SDS011;28397;44.552;-0.848;2022-07-22T13:24:48;7.75;;;4.68;;
42742;SDS011;28397;44.552;-0.848;2022-07-22T13:27:14;8.57;;;4.93;;
42742;SDS011;28397;44.552;-0.848;2022-07-22T13:29:40;9.63;;;4.75;;
42742;SDS011;28397;44.552;-0.848;2022-07-22T13:32:06;9.00;;;4.97;;
42742;SDS011;28397;44.552;-0.848;2022-07-22T13:34:31;10.48;;;5.30;;
42742;SDS011;28397;44.552;-0.848;2022-07-22T13:36:57;10.00;;;5.00;;
42742;SDS011;28397;44.552;-0.848;2022-07-22T13:39:23;6.85;;;4.90;;
42742;SDS011;28397;44.552;-0.848;2022-07-22T13:41:49;9.80;;;4.95;;
42742;SDS011;28397;44.552;-0.848;2022-07-22T13:44:15;10.68;;;5.30;;
42742;SDS011;28397;44.552;-0.848;2022-07-22T13:46:41;10.93;;;5.78;;
42742;SDS011;28397;44.552;-0.848;2022-07-22T13:49:06;10.50;;;5.90;;
42742;SDS011;28397;44.552;-0.848;2022-07-22T13:51:32;9.82;;;5.68;;
42742;SDS011;28397;44.552;-0.848;2022-07-22T13:53:58;11.05;;;5.75;;
42742;SDS011;28397;44.552;-0.848;2022-07-22T13:56:23;8.98;;;5.80;;
42742;SDS011;28397;44.552;-0.848;2022-07-22T13:58:49;9.73;;;5.70;;
42742;SDS011;28397;44.552;-0.848;2022-07-22T14:01:15;7.53;;;5.40;;
42742;SDS011;28397;44.552;-0.848;2022-07-22T14:03:41;10.40;;;6.15;;
42742;SDS011;28397;44.552;-0.848;2022-07-22T14:06:07;11.50;;;6.40;;
42742;SDS011;28397;44.552;-0.848;2022-07-22T14:08:34;9.65;;;5.85;;
42742;SDS011;28397;44.552;-0.848;2022-07-22T14:11:00;10.55;;;5.82;;
42742;SDS011;28397;44.552;-0.848;2022-07-22T14:13:26;8.85;;;5.10;;
42742;SDS011;28397;44.552;-0.848;2022-07-22T14:15:52;10.00;;;4.55;;
42742;SDS011;28397;44.552;-0.848;2022-07-22T14:18:18;10.30;;;4.32;;
42742;SDS011;28397;44.552;-0.848;2022-07-22T14:20:44;6.78;;;4.60;;
42742;SDS011;28397;44.552;-0.848;2022-07-22T14:23:09;8.95;;;4.70;;
42742;SDS011;28397;44.552;-0.848;2022-07-22T14:25:38;7.72;;;5.00;;
42742;SDS011;28397;44.552;-0.848;2022-07-22T14:28:05;6.90;;;4.90;;
42742;SDS011;28397;44.552;-0.848;2022-07-22T14:30:32;8.52;;;5.18;;
42742;SDS011;28397;44.552;-0.848;2022-07-22T14:32:58;9.50;;;5.57;;
42742;SDS011;28397;44.552;-0.848;2022-07-22T14:35:25;8.60;;;4.00;;
42742;SDS011;28397;44.552;-0.848;2022-07-22T14:37:50;6.65;;;3.10;;
42742;SDS011;28397;44.552;-0.848;2022-07-22T14:40:16;5.55;;;3.03;;
42742;SDS011;28397;44.552;-0.848;2022-07-22T14:42:42;5.82;;;3.15;;
42742;SDS011;28397;44.552;-0.848;2022-07-22T14:45:08;5.75;;;2.70;;
42742;SDS011;28397;44.552;-0.848;2022-07-22T14:47:37;5.65;;;2.78;;